• Join FlightAware (Why Join?)
  • Login
  • US Flag 
05:46PM EST


 

Airport Tracker/Info


-or-


 

Live Flight TrackerFlight Track Log ✈ OPT429 ✈ 13-Jul-2014 ✈ KGEG - KCPR

Flight Track Log - Related Links

Times and Time Zones

All times are in EDT time to prevent confusion due to time zone crossing. See the OPT429 flight status page for this flight to view local times or setup timezone preferences in your user account.

Time Position Orientation Groundspeed Altitude Reporting Facility
EDT Latitude Longitude Course Direction KTS MPH feet Rate Location/Type
05:19PM 47.6489 -117.4950 65° Northeast 190 219 4,300  Level Salt Lake Center
05:20PM 47.6744 -117.4153 65° Northeast 223 257 7,000 2,593 Climbing Seattle Center
05:21PM 47.6492 -117.3183 111° Southeast 252 290 9,400 2,341 Climbing Seattle Center
05:22PM 47.6161 -117.2122 115° Southeast 279 321 11,800 2,439 Climbing Seattle Center
05:23PM 47.5794 -117.0903 114° Southeast 295 339 14,400 2,410 Climbing Seattle Center
05:24PM 47.5406 -116.9742 116° Southeast 313 360 16,700 2,066 Climbing Seattle Center
05:25PM 47.5050 -116.8631 115° Southeast 315 362 18,600 1,918 Climbing Seattle Center
05:26PM 47.4650 -116.7389 115° Southeast 326 375 20,600 1,902 Climbing Seattle Center
05:27PM 47.4231 -116.6097 116° Southeast 338 389 22,500 1,902 Climbing Seattle Center
05:28PM 47.3806 -116.4775 115° Southeast 349 402 24,500 1,967 Climbing Seattle Center
05:29PM 47.3367 -116.3436 116° Southeast 358 412 26,500 1,918 Climbing Seattle Center
05:30PM 47.2928 -116.2081 115° Southeast 362 417 28,400 1,770 Climbing Seattle Center
05:31PM 47.2469 -116.0689 116° Southeast 374 430 30,100 1,707 Climbing Seattle Center
05:32PM 47.1897 -115.8947 116° Southeast 390 449 31,900 1,561 Climbing Seattle Center
05:33PM 47.1394 -115.7433 116° Southeast 407 468 33,300 1,180 Climbing Seattle Center
05:34PM 47.0858 -115.5861 117° Southeast 422 486 34,300 984 Climbing Seattle Center
05:35PM 47.0303 -115.4214 116° Southeast 444 511 35,300 934 Climbing Seattle Center
05:36PM 46.9775 -115.2622 116° Southeast 447 514 36,200 836 Climbing Seattle Center
05:37PM 46.9183 -115.0892 117° Southeast 467 537 37,000 683 Climbing Seattle Center
05:38PM 46.8583 -114.9147 117° Southeast 475 547 37,600 780 Climbing Seattle Center
05:39PM 46.7975 -114.7397 117° Southeast 480 552 38,600 1,082 Climbing Seattle Center
05:40PM 46.7250 -114.5314 117° Southeast 482 555 39,800 1,082 Climbing Seattle Center
05:41PM 46.6650 -114.3597 117° Southeast 481 554 40,800 590 Climbing Seattle Center
05:42PM 46.6053 -114.1911 117° Southeast 475 547 41,000 98 Climbing Seattle Center
05:43PM 46.5456 -114.0219 117° Southeast 475 547 41,000  Level Seattle Center
05:44PM 46.4858 -113.8558 118° Southeast 469 540 41,000  Level Seattle Center
05:46PM 46.4261 -113.6900 118° Southeast 468 539 41,000  Level Seattle Center
05:47PM 46.3289 -113.4261 118° Southeast 466 536 41,000  Level Salt Lake Center
05:48PM 46.2683 -113.2608 118° Southeast 469 540 41,000  Level Salt Lake Center
05:49PM 46.2006 -113.0792 118° Southeast 469 540 41,000  Level Salt Lake Center
05:50PM 46.1392 -112.9081 117° Southeast 470 541 41,000  Level Salt Lake Center
05:51PM 46.0769 -112.7392 118° Southeast 470 541 41,000  Level Salt Lake Center
05:52PM 46.0131 -112.5694 118° Southeast 473 544 41,000  Level Salt Lake Center
05:53PM 45.9486 -112.4000 119° Southeast 474 545 41,000  Level Salt Lake Center
05:54PM 45.8781 -112.2161 119° Southeast 477 549 41,000  Level Salt Lake Center
05:55PM 45.7972 -112.0631 127° Southeast 476 548 41,000  Level Salt Lake Center
05:56PM 45.7122 -111.9153 129° Southeast 475 547 41,000  Level Salt Lake Center
05:57PM 45.6256 -111.7681 130° Southeast 475 547 41,000  Level Salt Lake Center
05:58PM 45.5311 -111.6100 130° Southeast 476 548 41,000  Level Salt Lake Center
05:59PM 45.4439 -111.4614 130° Southeast 479 551 41,000  Level Salt Lake Center
06:00PM 45.3567 -111.3136 130° Southeast 480 552 41,000  Level Salt Lake Center
06:01PM 45.2692 -111.1664 130° Southeast 480 552 41,000  Level Salt Lake Center
06:03PM 45.1817 -111.0186 130° Southeast 481 554 41,000  Level Salt Lake Center
06:04PM 45.0953 -110.8794 131° Southeast 480 552 41,000  Level Salt Lake Center
06:05PM 45.0089 -110.7333 130° Southeast 480 552 41,000  Level Salt Lake Center
06:06PM 44.9203 -110.5903 131° Southeast 480 552 41,000  Level Salt Lake Center
06:07PM 44.8147 -110.4203 131° Southeast 481 554 41,000  Level Salt Lake Center
06:08PM 44.7275 -110.2769 131° Southeast 481 554 41,000  Level Salt Lake Center
06:09PM 44.6383 -110.1342 131° Southeast 483 556 41,000  Level Salt Lake Center
06:10PM 44.5522 -109.9922 130° Southeast 478 550 41,000  Level Salt Lake Center
06:11PM 44.4647 -109.8519 131° Southeast 475 547 41,000  Level Salt Lake Center
06:12PM 44.3758 -109.7089 131° Southeast 481 554 41,000  Level Salt Lake Center
06:13PM 44.2861 -109.5683 132° Southeast 484 557 41,000  Level Salt Lake Center
06:14PM 44.1844 -109.4111 132° Southeast 485 558 41,000 -532 Level Salt Lake Center
06:15PM 44.0869 -109.2597 132° Southeast 486 559 39,900 -1,016 Descending Salt Lake Center
06:16PM 44.0058 -109.1347 132° Southeast 485 558 38,900 -1,161 Descending Salt Lake Center
06:17PM 43.9028 -108.9728 131° Southeast 472 543 37,500 -1,645 Descending Salt Lake Center
06:18PM 43.8150 -108.8389 132° Southeast 472 543 35,500 -1,935 Descending Salt Lake Center
06:19PM 43.7236 -108.6989 132° Southeast 486 559 33,500 -1,935 Descending Salt Lake Center
06:20PM 43.6308 -108.5578 132° Southeast 494 568 31,500 -1,935 Descending Salt Lake Center
06:21PM 43.5394 -108.4186 132° Southeast 495 570 29,500 -2,177 Descending Salt Lake Center
06:22PM 43.4472 -108.2425 126° Southeast 483 556 27,000 -2,177 Descending Salt Lake Center
06:23PM 43.3972 -108.0775 113° Southeast 474 545 25,000 -1,935 Descending Salt Lake Center
06:24PM 43.3489 -107.9175 113° Southeast 461 531 23,000 -1,935 Descending Salt Lake Center
06:25PM 43.3031 -107.7631 112° Southeast 447 514 21,000 -1,984 Descending Salt Lake Center
06:26PM 43.2575 -107.6100 112° Southeast 440 506 18,900 -1,839 Descending Salt Lake Center
06:27PM 43.2119 -107.4622 113° Southeast 428 493 17,200 -1,904 Descending Salt Lake Center
06:28PM 43.1781 -107.3447 112° Southeast 419 482 15,600 -1,269 Descending Denver Center
06:29PM 43.1331 -107.1964 113° Southeast 404 465 15,000 -290 Descending Denver Center
06:30PM 43.0914 -107.0653 113° Southeast 396 456 15,000 -145 Level Denver Center
06:31PM 43.0442 -106.9150 113° Southeast 388 447 14,700 -1,161 Descending Denver Center
06:32PM 43.0069 -106.7881 112° Southeast 382 440 12,600 -2,323 Descending Denver Center
06:33PM 42.9489 -106.6567 121° Southeast 368 423 9,900 -2,081 Descending Denver Center
06:34PM 42.9039 -106.5772 128° Southeast 308 354 8,300 -919 Descending Denver Center
06:35PM 42.8456 -106.5275 148° Southeast 259 298 8,000 -290 Descending Denver Center
06:38PM 42.9000 -106.4500 90° East  Level FlightAware Approximate
06:45PM 42.9080 -106.4644 90° East  Level Estimated